sensor_id;sensor_type;location;lat;lon;timestamp;temperature;humidity
52621;DHT22;38515;53.160;6.990;2024-02-21T00:02:19;9.60;1.00
52621;DHT22;38515;53.160;6.990;2024-02-21T00:04:45;9.60;1.00
52621;DHT22;38515;53.160;6.990;2024-02-21T00:07:11;9.50;45.80
52621;DHT22;38515;53.160;6.990;2024-02-21T00:09:36;9.50;1.00
52621;DHT22;38515;53.160;6.990;2024-02-21T00:12:02;10.10;1.00
52621;DHT22;38515;53.160;6.990;2024-02-21T00:14:28;9.60;99.90
52621;DHT22;38515;53.160;6.990;2024-02-21T00:16:54;9.60;99.90
52621;DHT22;38515;53.160;6.990;2024-02-21T00:19:19;9.60;99.90
52621;DHT22;38515;53.160;6.990;2024-02-21T00:21:46;9.50;99.90
52621;DHT22;38515;53.160;6.990;2024-02-21T00:24:11;9.60;99.90
52621;DHT22;38515;53.160;6.990;2024-02-21T00:26:37;9.50;99.90
52621;DHT22;38515;53.160;6.990;2024-02-21T00:29:03;9.50;99.90
52621;DHT22;38515;53.160;6.990;2024-02-21T00:31:28;9.50;1.00
52621;DHT22;38515;53.160;6.990;2024-02-21T00:33:54;9.50;1.00
52621;DHT22;38515;53.160;6.990;2024-02-21T00:36:20;9.40;99.90
52621;DHT22;38515;53.160;6.990;2024-02-21T00:38:45;9.30;99.90
52621;DHT22;38515;53.160;6.990;2024-02-21T00:41:11;9.30;99.90
52621;DHT22;38515;53.160;6.990;2024-02-21T00:43:36;9.20;1.00
52621;DHT22;38515;53.160;6.990;2024-02-21T00:46:02;9.20;1.00
52621;DHT22;38515;53.160;6.990;2024-02-21T00:48:30;9.20;1.70
52621;DHT22;38515;53.160;6.990;2024-02-21T00:50:56;9.20;99.90
52621;DHT22;38515;53.160;6.990;2024-02-21T00:53:22;9.20;99.90
52621;DHT22;38515;53.160;6.990;2024-02-21T00:55:48;9.20;99.90
52621;DHT22;38515;53.160;6.990;2024-02-21T00:58:13;9.20;99.90
52621;DHT22;38515;53.160;6.990;2024-02-21T01:00:39;9.20;99.90
52621;DHT22;38515;53.160;6.990;2024-02-21T01:03:04;9.20;99.90
52621;DHT22;38515;53.160;6.990;2024-02-21T01:05:30;9.20;99.90
52621;DHT22;38515;53.160;6.990;2024-02-21T01:07:56;9.20;99.90
52621;DHT22;38515;53.160;6.990;2024-02-21T01:10:21;9.20;99.90
52621;DHT22;38515;53.160;6.990;2024-02-21T01:12:48;9.20;99.90
52621;DHT22;38515;53.160;6.990;2024-02-21T01:15:13;9.10;99.90
52621;DHT22;38515;53.160;6.990;2024-02-21T01:17:39;9.10;99.90
52621;DHT22;38515;53.160;6.990;2024-02-21T01:20:06;9.20;99.90
52621;DHT22;38515;53.160;6.990;2024-02-21T01:22:33;9.10;99.90
52621;DHT22;38515;53.160;6.990;2024-02-21T01:24:58;9.60;99.90
52621;DHT22;38515;53.160;6.990;2024-02-21T01:27:24;9.10;99.90
52621;DHT22;38515;53.160;6.990;2024-02-21T01:29:49;9.00;1.00
52621;DHT22;38515;53.160;6.990;2024-02-21T01:32:16;9.50;1.00
52621;DHT22;38515;53.160;6.990;2024-02-21T01:34:42;9.10;1.00
52621;DHT22;38515;53.160;6.990;2024-02-21T01:37:07;9.10;1.00
52621;DHT22;38515;53.160;6.990;2024-02-21T01:39:33;9.10;1.00
52621;DHT22;38515;53.160;6.990;2024-02-21T01:41:59;9.80;1.00
52621;DHT22;38515;53.160;6.990;2024-02-21T01:44:25;9.20;1.00
52621;DHT22;38515;53.160;6.990;2024-02-21T01:46:52;9.10;1.00
52621;DHT22;38515;53.160;6.990;2024-02-21T01:49:19;9.10;1.00
52621;DHT22;38515;53.160;6.990;2024-02-21T01:51:46;9.10;1.00
52621;DHT22;38515;53.160;6.990;2024-02-21T01:54:14;9.10;1.00
52621;DHT22;38515;53.160;6.990;2024-02-21T01:56:41;9.10;1.00
52621;DHT22;38515;53.160;6.990;2024-02-21T01:59:07;9.10;1.00
52621;DHT22;38515;53.160;6.990;2024-02-21T02:01:33;9.10;97.50
52621;DHT22;38515;53.160;6.990;2024-02-21T02:03:59;9.00;99.90
52621;DHT22;38515;53.160;6.990;2024-02-21T02:06:25;9.00;99.90
52621;DHT22;38515;53.160;6.990;2024-02-21T02:08:51;8.90;99.90
52621;DHT22;38515;53.160;6.990;2024-02-21T02:11:17;8.80;1.00
52621;DHT22;38515;53.160;6.990;2024-02-21T02:13:42;8.80;1.00
52621;DHT22;38515;53.160;6.990;2024-02-21T02:16:08;8.80;1.00
52621;DHT22;38515;53.160;6.990;2024-02-21T02:18:34;9.00;85.20
52621;DHT22;38515;53.160;6.990;2024-02-21T02:20:59;8.70;99.90
52621;DHT22;38515;53.160;6.990;2024-02-21T02:23:31;8.80;99.90
52621;DHT22;38515;53.160;6.990;2024-02-21T02:25:57;8.70;99.90
52621;DHT22;38515;53.160;6.990;2024-02-21T02:28:23;8.70;99.90
52621;DHT22;38515;53.160;6.990;2024-02-21T02:30:50;8.70;99.90
52621;DHT22;38515;53.160;6.990;2024-02-21T02:33:16;8.60;99.90
52621;DHT22;38515;53.160;6.990;2024-02-21T02:35:46;8.80;99.90
52621;DHT22;38515;53.160;6.990;2024-02-21T02:38:12;8.80;99.90
52621;DHT22;38515;53.160;6.990;2024-02-21T02:40:39;8.70;99.90
52621;DHT22;38515;53.160;6.990;2024-02-21T02:43:05;8.70;99.90
52621;DHT22;38515;53.160;6.990;2024-02-21T02:45:31;8.60;99.90
52621;DHT22;38515;53.160;6.990;2024-02-21T02:47:57;8.70;99.90
52621;DHT22;38515;53.160;6.990;2024-02-21T02:50:24;8.70;99.90
52621;DHT22;38515;53.160;6.990;2024-02-21T02:52:50;8.70;99.90
52621;DHT22;38515;53.160;6.990;2024-02-21T02:55:16;8.70;99.90
52621;DHT22;38515;53.160;6.990;2024-02-21T02:57:42;8.70;99.90
52621;DHT22;38515;53.160;6.990;2024-02-21T03:00:10;8.70;99.90
52621;DHT22;38515;53.160;6.990;2024-02-21T03:02:37;8.70;99.90
52621;DHT22;38515;53.160;6.990;2024-02-21T03:05:15;8.70;99.90
52621;DHT22;38515;53.160;6.990;2024-02-21T03:07:41;8.60;99.90
52621;DHT22;38515;53.160;6.990;2024-02-21T03:10:07;9.10;99.90
52621;DHT22;38515;53.160;6.990;2024-02-21T03:12:33;8.60;99.90
52621;DHT22;38515;53.160;6.990;2024-02-21T03:14:59;8.70;99.90
52621;DHT22;38515;53.160;6.990;2024-02-21T03:17:25;8.60;99.90
52621;DHT22;38515;53.160;6.990;2024-02-21T03:19:54;8.70;99.90
52621;DHT22;38515;53.160;6.990;2024-02-21T03:22:21;8.70;99.90
52621;DHT22;38515;53.160;6.990;2024-02-21T03:24:47;8.70;99.90
52621;DHT22;38515;53.160;6.990;2024-02-21T03:27:13;8.70;99.90
52621;DHT22;38515;53.160;6.990;2024-02-21T03:29:38;8.70;99.90
52621;DHT22;38515;53.160;6.990;2024-02-21T03:32:04;8.70;99.90
52621;DHT22;38515;53.160;6.990;2024-02-21T03:34:30;8.90;99.90
52621;DHT22;38515;53.160;6.990;2024-02-21T03:36:55;8.70;99.90
52621;DHT22;38515;53.160;6.990;2024-02-21T03:39:21;9.40;99.90
52621;DHT22;38515;53.160;6.990;2024-02-21T03:41:47;8.70;99.90
52621;DHT22;38515;53.160;6.990;2024-02-21T03:44:16;9.50;99.90
52621;DHT22;38515;53.160;6.990;2024-02-21T03:46:42;9.20;99.90
52621;DHT22;38515;53.160;6.990;2024-02-21T03:49:08;8.60;99.90
52621;DHT22;38515;53.160;6.990;2024-02-21T03:51:33;8.70;99.90
52621;DHT22;38515;53.160;6.990;2024-02-21T03:53:59;9.20;99.90
52621;DHT22;38515;53.160;6.990;2024-02-21T03:56:25;8.70;99.90
52621;DHT22;38515;53.160;6.990;2024-02-21T03:58:50;8.70;99.90
52621;DHT22;38515;53.160;6.990;2024-02-21T04:01:16;9.20;99.90
52621;DHT22;38515;53.160;6.990;2024-02-21T04:03:43;8.60;99.90
52621;DHT22;38515;53.160;6.990;2024-02-21T04:06:09;8.70;99.90
52621;DHT22;38515;53.160;6.990;2024-02-21T04:08:35;8.70;99.90
52621;DHT22;38515;53.160;6.990;2024-02-21T04:11:01;8.70;99.90
52621;DHT22;38515;53.160;6.990;2024-02-21T04:13:27;8.70;99.90
52621;DHT22;38515;53.160;6.990;2024-02-21T04:15:53;8.80;99.90
52621;DHT22;38515;53.160;6.990;2024-02-21T04:18:18;8.70;99.90
52621;DHT22;38515;53.160;6.990;2024-02-21T04:20:44;8.90;99.90
52621;DHT22;38515;53.160;6.990;2024-02-21T04:23:10;8.70;99.90
52621;DHT22;38515;53.160;6.990;2024-02-21T04:25:36;8.70;99.90
52621;DHT22;38515;53.160;6.990;2024-02-21T04:28:02;8.70;99.90
52621;DHT22;38515;53.160;6.990;2024-02-21T04:30:28;8.60;99.90
52621;DHT22;38515;53.160;6.990;2024-02-21T04:32:54;8.70;99.90
52621;DHT22;38515;53.160;6.990;2024-02-21T04:35:20;8.60;99.90
52621;DHT22;38515;53.160;6.990;2024-02-21T04:37:45;8.60;99.90
52621;DHT22;38515;53.160;6.990;2024-02-21T04:40:11;8.70;99.90
52621;DHT22;38515;53.160;6.990;2024-02-21T04:42:37;8.70;99.90
52621;DHT22;38515;53.160;6.990;2024-02-21T04:45:03;8.60;99.90
52621;DHT22;38515;53.160;6.990;2024-02-21T04:47:29;8.60;99.90
52621;DHT22;38515;53.160;6.990;2024-02-21T04:49:55;8.80;99.90
52621;DHT22;38515;53.160;6.990;2024-02-21T04:52:21;8.60;99.90
52621;DHT22;38515;53.160;6.990;2024-02-21T04:54:47;8.70;99.90
52621;DHT22;38515;53.160;6.990;2024-02-21T04:57:13;9.40;99.90
52621;DHT22;38515;53.160;6.990;2024-02-21T04:59:43;8.70;99.90
52621;DHT22;38515;53.160;6.990;2024-02-21T05:02:09;8.70;99.90
52621;DHT22;38515;53.160;6.990;2024-02-21T05:04:35;8.90;99.90
52621;DHT22;38515;53.160;6.990;2024-02-21T05:07:02;8.70;99.90
52621;DHT22;38515;53.160;6.990;2024-02-21T05:09:28;8.70;99.90
52621;DHT22;38515;53.160;6.990;2024-02-21T05:11:53;8.70;99.90
52621;DHT22;38515;53.160;6.990;2024-02-21T05:14:19;8.70;99.90
52621;DHT22;38515;53.160;6.990;2024-02-21T05:16:44;8.70;99.90
52621;DHT22;38515;53.160;6.990;2024-02-21T05:19:10;8.70;99.90
52621;DHT22;38515;53.160;6.990;2024-02-21T05:21:36;8.70;99.90
52621;DHT22;38515;53.160;6.990;2024-02-21T05:24:02;8.70;99.90
52621;DHT22;38515;53.160;6.990;2024-02-21T05:26:27;8.70;99.90
52621;DHT22;38515;53.160;6.990;2024-02-21T05:28:53;9.30;99.90
52621;DHT22;38515;53.160;6.990;2024-02-21T05:31:19;8.70;99.90
52621;DHT22;38515;53.160;6.990;2024-02-21T05:33:46;8.80;99.90
52621;DHT22;38515;53.160;6.990;2024-02-21T05:36:12;8.70;99.90
52621;DHT22;38515;53.160;6.990;2024-02-21T05:38:38;8.80;99.90
52621;DHT22;38515;53.160;6.990;2024-02-21T05:41:04;8.70;99.90
52621;DHT22;38515;53.160;6.990;2024-02-21T05:43:30;8.70;99.90
52621;DHT22;38515;53.160;6.990;2024-02-21T05:45:58;8.70;99.90
52621;DHT22;38515;53.160;6.990;2024-02-21T05:48:24;8.70;99.90
52621;DHT22;38515;53.160;6.990;2024-02-21T05:50:50;8.70;99.90
52621;DHT22;38515;53.160;6.990;2024-02-21T05:53:17;8.80;99.90
52621;DHT22;38515;53.160;6.990;2024-02-21T05:55:42;8.80;99.90
52621;DHT22;38515;53.160;6.990;2024-02-21T05:58:08;8.70;99.90
52621;DHT22;38515;53.160;6.990;2024-02-21T06:00:39;9.40;99.90
52621;DHT22;38515;53.160;6.990;2024-02-21T06:03:05;8.70;99.90
52621;DHT22;38515;53.160;6.990;2024-02-21T06:05:31;8.70;99.90
52621;DHT22;38515;53.160;6.990;2024-02-21T06:07:57;8.70;99.90
52621;DHT22;38515;53.160;6.990;2024-02-21T06:10:23;9.60;99.90
52621;DHT22;38515;53.160;6.990;2024-02-21T06:12:48;8.70;99.90
52621;DHT22;38515;53.160;6.990;2024-02-21T06:15:14;8.90;99.90
52621;DHT22;38515;53.160;6.990;2024-02-21T06:17:40;8.70;99.90
52621;DHT22;38515;53.160;6.990;2024-02-21T06:20:06;8.80;99.90
52621;DHT22;38515;53.160;6.990;2024-02-21T06:22:32;8.80;99.90
52621;DHT22;38515;53.160;6.990;2024-02-21T06:24:58;9.60;99.90
52621;DHT22;38515;53.160;6.990;2024-02-21T06:27:24;8.70;99.90
52621;DHT22;38515;53.160;6.990;2024-02-21T06:29:50;8.80;99.90
52621;DHT22;38515;53.160;6.990;2024-02-21T06:32:15;8.80;99.90
52621;DHT22;38515;53.160;6.990;2024-02-21T06:34:41;9.70;99.90
52621;DHT22;38515;53.160;6.990;2024-02-21T06:37:06;8.90;99.90
52621;DHT22;38515;53.160;6.990;2024-02-21T06:39:32;8.80;99.90
52621;DHT22;38515;53.160;6.990;2024-02-21T06:41:58;8.70;99.90
52621;DHT22;38515;53.160;6.990;2024-02-21T06:44:24;8.70;99.90
52621;DHT22;38515;53.160;6.990;2024-02-21T06:46:49;8.80;99.90
52621;DHT22;38515;53.160;6.990;2024-02-21T06:49:15;8.80;99.90
52621;DHT22;38515;53.160;6.990;2024-02-21T06:51:43;8.70;99.90
52621;DHT22;38515;53.160;6.990;2024-02-21T06:54:09;8.80;99.90
52621;DHT22;38515;53.160;6.990;2024-02-21T06:56:36;8.70;99.90
52621;DHT22;38515;53.160;6.990;2024-02-21T06:59:02;8.80;99.90
52621;DHT22;38515;53.160;6.990;2024-02-21T07:01:32;8.70;99.90
52621;DHT22;38515;53.160;6.990;2024-02-21T07:03:58;8.70;99.90
52621;DHT22;38515;53.160;6.990;2024-02-21T07:06:23;8.80;99.90
52621;DHT22;38515;53.160;6.990;2024-02-21T07:08:49;8.80;99.90
52621;DHT22;38515;53.160;6.990;2024-02-21T07:11:15;8.70;99.90
52621;DHT22;38515;53.160;6.990;2024-02-21T07:13:41;8.70;99.90
52621;DHT22;38515;53.160;6.990;2024-02-21T07:16:07;8.70;99.90
52621;DHT22;38515;53.160;6.990;2024-02-21T07:18:33;8.80;99.90
52621;DHT22;38515;53.160;6.990;2024-02-21T07:20:59;8.80;99.90
52621;DHT22;38515;53.160;6.990;2024-02-21T07:23:24;8.70;99.90
52621;DHT22;38515;53.160;6.990;2024-02-21T07:25:50;8.70;99.90
52621;DHT22;38515;53.160;6.990;2024-02-21T07:28:16;8.70;99.90
52621;DHT22;38515;53.160;6.990;2024-02-21T07:30:42;8.70;99.90
52621;DHT22;38515;53.160;6.990;2024-02-21T07:33:08;8.80;99.90
52621;DHT22;38515;53.160;6.990;2024-02-21T07:35:34;8.70;99.90
52621;DHT22;38515;53.160;6.990;2024-02-21T07:38:04;8.70;99.90
52621;DHT22;38515;53.160;6.990;2024-02-21T07:40:30;8.80;99.90
52621;DHT22;38515;53.160;6.990;2024-02-21T07:42:55;8.90;99.90
52621;DHT22;38515;53.160;6.990;2024-02-21T07:45:21;9.40;99.90
52621;DHT22;38515;53.160;6.990;2024-02-21T07:47:49;8.90;99.90
52621;DHT22;38515;53.160;6.990;2024-02-21T07:50:15;8.80;99.90
52621;DHT22;38515;53.160;6.990;2024-02-21T07:52:40;8.80;99.90
52621;DHT22;38515;53.160;6.990;2024-02-21T07:55:07;8.90;99.90
52621;DHT22;38515;53.160;6.990;2024-02-21T07:57:32;8.80;99.90
52621;DHT22;38515;53.160;6.990;2024-02-21T07:59:58;8.80;99.90
52621;DHT22;38515;53.160;6.990;2024-02-21T08:02:24;8.90;99.90
52621;DHT22;38515;53.160;6.990;2024-02-21T08:04:49;9.80;99.90
52621;DHT22;38515;53.160;6.990;2024-02-21T08:07:15;8.90;99.90
52621;DHT22;38515;53.160;6.990;2024-02-21T08:09:40;9.20;99.90
52621;DHT22;38515;53.160;6.990;2024-02-21T08:12:06;8.90;99.90
52621;DHT22;38515;53.160;6.990;2024-02-21T08:14:32;9.00;99.90
52621;DHT22;38515;53.160;6.990;2024-02-21T08:16:57;9.00;99.90
52621;DHT22;38515;53.160;6.990;2024-02-21T08:19:24;9.10;99.90
52621;DHT22;38515;53.160;6.990;2024-02-21T08:21:50;9.00;99.90
52621;DHT22;38515;53.160;6.990;2024-02-21T08:24:16;9.00;99.90
52621;DHT22;38515;53.160;6.990;2024-02-21T08:26:46;9.10;99.90
52621;DHT22;38515;53.160;6.990;2024-02-21T08:29:12;9.10;99.90
52621;DHT22;38515;53.160;6.990;2024-02-21T08:31:37;9.10;99.90
52621;DHT22;38515;53.160;6.990;2024-02-21T08:34:03;9.00;99.90
52621;DHT22;38515;53.160;6.990;2024-02-21T08:36:36;9.80;99.90
52621;DHT22;38515;53.160;6.990;2024-02-21T08:39:03;9.10;99.90
52621;DHT22;38515;53.160;6.990;2024-02-21T08:41:32;9.00;99.90
52621;DHT22;38515;53.160;6.990;2024-02-21T08:43:59;9.00;99.90
52621;DHT22;38515;53.160;6.990;2024-02-21T08:46:25;9.00;99.90
52621;DHT22;38515;53.160;6.990;2024-02-21T08:48:51;9.00;99.90
52621;DHT22;38515;53.160;6.990;2024-02-21T08:51:17;9.40;99.90
52621;DHT22;38515;53.160;6.990;2024-02-21T08:53:44;9.00;99.90
52621;DHT22;38515;53.160;6.990;2024-02-21T08:56:10;9.50;99.90
52621;DHT22;38515;53.160;6.990;2024-02-21T08:58:39;9.00;99.90
52621;DHT22;38515;53.160;6.990;2024-02-21T09:01:06;9.00;99.90
52621;DHT22;38515;53.160;6.990;2024-02-21T09:03:36;9.10;99.90
52621;DHT22;38515;53.160;6.990;2024-02-21T09:06:01;9.20;99.90
52621;DHT22;38515;53.160;6.990;2024-02-21T09:08:27;9.00;99.90
52621;DHT22;38515;53.160;6.990;2024-02-21T09:10:53;9.00;99.90
52621;DHT22;38515;53.160;6.990;2024-02-21T09:13:19;9.00;99.90
52621;DHT22;38515;53.160;6.990;2024-02-21T09:15:44;9.00;99.90
52621;DHT22;38515;53.160;6.990;2024-02-21T09:18:10;9.00;99.90
52621;DHT22;38515;53.160;6.990;2024-02-21T09:20:36;9.00;99.90
52621;DHT22;38515;53.160;6.990;2024-02-21T09:23:01;9.00;99.90
52621;DHT22;38515;53.160;6.990;2024-02-21T09:25:27;9.00;99.90
52621;DHT22;38515;53.160;6.990;2024-02-21T09:27:54;9.00;99.90
52621;DHT22;38515;53.160;6.990;2024-02-21T09:30:20;9.10;99.90
52621;DHT22;38515;53.160;6.990;2024-02-21T09:32:46;9.00;99.90
52621;DHT22;38515;53.160;6.990;2024-02-21T09:35:12;9.00;99.90
52621;DHT22;38515;53.160;6.990;2024-02-21T09:37:39;9.00;99.90
52621;DHT22;38515;53.160;6.990;2024-02-21T09:40:05;9.70;99.90
52621;DHT22;38515;53.160;6.990;2024-02-21T09:42:41;9.00;99.90
52621;DHT22;38515;53.160;6.990;2024-02-21T09:45:21;8.90;99.90
52621;DHT22;38515;53.160;6.990;2024-02-21T09:50:23;8.90;99.90
52621;DHT22;38515;53.160;6.990;2024-02-21T09:52:51;8.90;99.90
52621;DHT22;38515;53.160;6.990;2024-02-21T09:55:18;8.90;99.90
52621;DHT22;38515;53.160;6.990;2024-02-21T09:57:44;8.90;99.90
52621;DHT22;38515;53.160;6.990;2024-02-21T10:00:10;9.60;99.90
52621;DHT22;38515;53.160;6.990;2024-02-21T10:02:36;9.00;99.90
52621;DHT22;38515;53.160;6.990;2024-02-21T10:05:04;8.90;99.90
52621;DHT22;38515;53.160;6.990;2024-02-21T10:07:33;9.00;99.90
52621;DHT22;38515;53.160;6.990;2024-02-21T10:10:05;9.60;99.90
52621;DHT22;38515;53.160;6.990;2024-02-21T10:12:31;9.00;99.90
52621;DHT22;38515;53.160;6.990;2024-02-21T10:15:02;9.70;99.90
52621;DHT22;38515;53.160;6.990;2024-02-21T10:17:28;9.10;99.90
52621;DHT22;38515;53.160;6.990;2024-02-21T10:19:53;9.10;99.90
52621;DHT22;38515;53.160;6.990;2024-02-21T10:22:19;9.10;99.90
52621;DHT22;38515;53.160;6.990;2024-02-21T10:24:46;9.20;99.90
52621;DHT22;38515;53.160;6.990;2024-02-21T10:27:12;9.30;99.90
52621;DHT22;38515;53.160;6.990;2024-02-21T10:29:38;9.30;99.90
52621;DHT22;38515;53.160;6.990;2024-02-21T10:32:12;9.40;99.90
52621;DHT22;38515;53.160;6.990;2024-02-21T10:34:39;10.10;99.90
52621;DHT22;38515;53.160;6.990;2024-02-21T10:37:07;9.40;99.90
52621;DHT22;38515;53.160;6.990;2024-02-21T10:39:35;9.40;99.90
52621;DHT22;38515;53.160;6.990;2024-02-21T10:42:02;9.40;99.90
52621;DHT22;38515;53.160;6.990;2024-02-21T10:44:37;9.50;99.90
52621;DHT22;38515;53.160;6.990;2024-02-21T10:47:08;9.50;99.90
52621;DHT22;38515;53.160;6.990;2024-02-21T10:49:38;9.60;99.90
52621;DHT22;38515;53.160;6.990;2024-02-21T10:54:49;9.70;99.90
52621;DHT22;38515;53.160;6.990;2024-02-21T10:57:18;9.80;99.90
52621;DHT22;38515;53.160;6.990;2024-02-21T10:59:48;9.90;99.90
52621;DHT22;38515;53.160;6.990;2024-02-21T11:02:15;9.80;99.90
52621;DHT22;38515;53.160;6.990;2024-02-21T11:04:41;9.90;99.90
52621;DHT22;38515;53.160;6.990;2024-02-21T11:07:08;9.80;99.90
52621;DHT22;38515;53.160;6.990;2024-02-21T11:09:34;10.00;99.90
52621;DHT22;38515;53.160;6.990;2024-02-21T11:12:04;9.90;99.90
52621;DHT22;38515;53.160;6.990;2024-02-21T11:14:30;9.80;99.90
52621;DHT22;38515;53.160;6.990;2024-02-21T11:17:02;9.80;90.50
52621;DHT22;38515;53.160;6.990;2024-02-21T11:19:30;9.80;1.00
52621;DHT22;38515;53.160;6.990;2024-02-21T11:21:57;9.80;1.00
52621;DHT22;38515;53.160;6.990;2024-02-21T11:26:54;9.90;1.00
52621;DHT22;38515;53.160;6.990;2024-02-21T11:29:24;10.60;1.00
52621;DHT22;38515;53.160;6.990;2024-02-21T11:31:54;10.00;1.00
52621;DHT22;38515;53.160;6.990;2024-02-21T11:34:20;10.10;99.90
52621;DHT22;38515;53.160;6.990;2024-02-21T11:36:52;10.10;37.20
52621;DHT22;38515;53.160;6.990;2024-02-21T11:39:23;10.10;75.90
52621;DHT22;38515;53.160;6.990;2024-02-21T11:42:19;10.50;35.00
52621;DHT22;38515;53.160;6.990;2024-02-21T11:44:45;10.10;99.90
52621;DHT22;38515;53.160;6.990;2024-02-21T11:47:11;10.00;1.00
52621;DHT22;38515;53.160;6.990;2024-02-21T11:49:45;10.00;1.00
52621;DHT22;38515;53.160;6.990;2024-02-21T11:52:12;10.00;1.00
52621;DHT22;38515;53.160;6.990;2024-02-21T11:54:39;10.10;1.00
52621;DHT22;38515;53.160;6.990;2024-02-21T11:57:05;10.10;1.00
52621;DHT22;38515;53.160;6.990;2024-02-21T11:59:31;10.10;1.00
52621;DHT22;38515;53.160;6.990;2024-02-21T12:01:58;10.10;99.90
52621;DHT22;38515;53.160;6.990;2024-02-21T12:04:25;10.00;99.90
52621;DHT22;38515;53.160;6.990;2024-02-21T12:06:52;10.00;99.90
52621;DHT22;38515;53.160;6.990;2024-02-21T12:09:18;10.00;99.90
52621;DHT22;38515;53.160;6.990;2024-02-21T12:11:45;10.00;99.90
52621;DHT22;38515;53.160;6.990;2024-02-21T12:14:16;10.00;99.90
52621;DHT22;38515;53.160;6.990;2024-02-21T12:16:42;10.00;99.90
52621;DHT22;38515;53.160;6.990;2024-02-21T12:19:10;9.90;99.90
52621;DHT22;38515;53.160;6.990;2024-02-21T12:21:35;10.20;1.00
52621;DHT22;38515;53.160;6.990;2024-02-21T12:24:22;10.00;1.00
52621;DHT22;38515;53.160;6.990;2024-02-21T12:26:51;10.00;1.00
52621;DHT22;38515;53.160;6.990;2024-02-21T12:29:21;9.90;99.90
52621;DHT22;38515;53.160;6.990;2024-02-21T12:31:47;9.90;99.90
52621;DHT22;38515;53.160;6.990;2024-02-21T12:34:15;9.90;99.90
52621;DHT22;38515;53.160;6.990;2024-02-21T12:36:45;9.90;50.50
52621;DHT22;38515;53.160;6.990;2024-02-21T12:39:14;10.60;99.90
52621;DHT22;38515;53.160;6.990;2024-02-21T12:41:40;9.90;1.00
52621;DHT22;38515;53.160;6.990;2024-02-21T12:44:10;9.90;39.90
52621;DHT22;38515;53.160;6.990;2024-02-21T12:46:37;9.90;1.00
52621;DHT22;38515;53.160;6.990;2024-02-21T12:49:03;10.00;99.90
52621;DHT22;38515;53.160;6.990;2024-02-21T12:51:30;9.90;99.90
52621;DHT22;38515;53.160;6.990;2024-02-21T12:53:56;9.90;99.90
52621;DHT22;38515;53.160;6.990;2024-02-21T12:56:22;10.00;99.90
52621;DHT22;38515;53.160;6.990;2024-02-21T12:58:48;9.90;1.00
52621;DHT22;38515;53.160;6.990;2024-02-21T13:01:13;9.90;1.00
52621;DHT22;38515;53.160;6.990;2024-02-21T13:03:39;9.90;99.90
52621;DHT22;38515;53.160;6.990;2024-02-21T13:06:05;9.90;99.90
52621;DHT22;38515;53.160;6.990;2024-02-21T13:08:34;10.00;99.90
52621;DHT22;38515;53.160;6.990;2024-02-21T13:11:00;10.00;99.90
52621;DHT22;38515;53.160;6.990;2024-02-21T13:13:26;10.00;84.80
52621;DHT22;38515;53.160;6.990;2024-02-21T13:15:52;10.00;1.00
52621;DHT22;38515;53.160;6.990;2024-02-21T13:18:18;9.90;1.00
52621;DHT22;38515;53.160;6.990;2024-02-21T13:20:43;9.90;1.00
52621;DHT22;38515;53.160;6.990;2024-02-21T13:23:09;9.80;99.90
52621;DHT22;38515;53.160;6.990;2024-02-21T13:25:34;9.80;99.90
52621;DHT22;38515;53.160;6.990;2024-02-21T13:28:00;9.80;99.90
52621;DHT22;38515;53.160;6.990;2024-02-21T13:30:27;9.80;99.90
52621;DHT22;38515;53.160;6.990;2024-02-21T13:32:52;9.80;99.90
52621;DHT22;38515;53.160;6.990;2024-02-21T13:35:20;9.90;99.90
52621;DHT22;38515;53.160;6.990;2024-02-21T13:37:46;9.90;99.90
52621;DHT22;38515;53.160;6.990;2024-02-21T13:40:11;9.90;1.00
52621;DHT22;38515;53.160;6.990;2024-02-21T13:42:39;10.00;99.90
52621;DHT22;38515;53.160;6.990;2024-02-21T13:45:05;10.00;99.90
52621;DHT22;38515;53.160;6.990;2024-02-21T13:47:34;10.00;72.20
52621;DHT22;38515;53.160;6.990;2024-02-21T13:50:02;10.00;49.20
52621;DHT22;38515;53.160;6.990;2024-02-21T13:52:30;10.00;51.20
52621;DHT22;38515;53.160;6.990;2024-02-21T13:54:56;10.10;88.10
52621;DHT22;38515;53.160;6.990;2024-02-21T13:57:22;10.10;99.90
52621;DHT22;38515;53.160;6.990;2024-02-21T13:59:48;10.10;99.90
52621;DHT22;38515;53.160;6.990;2024-02-21T14:02:14;10.20;99.90
52621;DHT22;38515;53.160;6.990;2024-02-21T14:04:39;10.10;99.90
52621;DHT22;38515;53.160;6.990;2024-02-21T14:07:05;10.10;99.90
52621;DHT22;38515;53.160;6.990;2024-02-21T14:09:31;10.00;28.30
52621;DHT22;38515;53.160;6.990;2024-02-21T14:11:58;10.00;99.90
52621;DHT22;38515;53.160;6.990;2024-02-21T14:14:24;10.10;99.90
52621;DHT22;38515;53.160;6.990;2024-02-21T14:16:49;9.90;1.00
52621;DHT22;38515;53.160;6.990;2024-02-21T14:19:15;9.90;17.70
52621;DHT22;38515;53.160;6.990;2024-02-21T14:21:41;9.90;99.90
52621;DHT22;38515;53.160;6.990;2024-02-21T14:24:06;9.90;85.50
52621;DHT22;38515;53.160;6.990;2024-02-21T14:26:35;9.90;99.90
52621;DHT22;38515;53.160;6.990;2024-02-21T14:29:01;9.80;99.90
52621;DHT22;38515;53.160;6.990;2024-02-21T14:31:31;9.90;99.90
52621;DHT22;38515;53.160;6.990;2024-02-21T14:33:57;9.80;99.90
52621;DHT22;38515;53.160;6.990;2024-02-21T14:36:22;9.80;99.90
52621;DHT22;38515;53.160;6.990;2024-02-21T14:38:49;9.80;99.90
52621;DHT22;38515;53.160;6.990;2024-02-21T14:41:17;9.80;99.90
52621;DHT22;38515;53.160;6.990;2024-02-21T14:43:43;9.70;99.90
52621;DHT22;38515;53.160;6.990;2024-02-21T14:46:09;9.70;99.90
52621;DHT22;38515;53.160;6.990;2024-02-21T14:48:35;9.70;99.90
52621;DHT22;38515;53.160;6.990;2024-02-21T14:51:01;9.70;99.90
52621;DHT22;38515;53.160;6.990;2024-02-21T14:53:27;9.70;99.90
52621;DHT22;38515;53.160;6.990;2024-02-21T14:55:53;9.60;99.90
52621;DHT22;38515;53.160;6.990;2024-02-21T14:58:19;9.60;26.60
52621;DHT22;38515;53.160;6.990;2024-02-21T15:00:45;9.50;1.00
52621;DHT22;38515;53.160;6.990;2024-02-21T15:03:13;9.50;1.00
52621;DHT22;38515;53.160;6.990;2024-02-21T15:05:45;9.50;1.00
52621;DHT22;38515;53.160;6.990;2024-02-21T15:08:11;9.40;1.00
52621;DHT22;38515;53.160;6.990;2024-02-21T15:10:37;9.50;1.00
52621;DHT22;38515;53.160;6.990;2024-02-21T15:13:03;9.50;1.00
52621;DHT22;38515;53.160;6.990;2024-02-21T15:15:29;9.40;46.70
52621;DHT22;38515;53.160;6.990;2024-02-21T15:17:55;9.40;1.00
52621;DHT22;38515;53.160;6.990;2024-02-21T15:20:20;9.50;1.00
52621;DHT22;38515;53.160;6.990;2024-02-21T15:22:46;9.40;99.90
52621;DHT22;38515;53.160;6.990;2024-02-21T15:25:12;9.40;99.90
52621;DHT22;38515;53.160;6.990;2024-02-21T15:27:42;9.30;99.90
52621;DHT22;38515;53.160;6.990;2024-02-21T15:30:09;9.30;99.90
52621;DHT22;38515;53.160;6.990;2024-02-21T15:32:35;9.30;1.00
52621;DHT22;38515;53.160;6.990;2024-02-21T15:35:03;9.30;1.00
52621;DHT22;38515;53.160;6.990;2024-02-21T15:37:29;9.30;99.90
52621;DHT22;38515;53.160;6.990;2024-02-21T15:39:55;10.00;99.90
52621;DHT22;38515;53.160;6.990;2024-02-21T15:42:29;9.30;99.90
52621;DHT22;38515;53.160;6.990;2024-02-21T15:44:57;9.30;99.90
52621;DHT22;38515;53.160;6.990;2024-02-21T15:47:30;9.20;1.00
52621;DHT22;38515;53.160;6.990;2024-02-21T15:49:59;9.60;1.00
52621;DHT22;38515;53.160;6.990;2024-02-21T15:52:28;9.30;1.00